Time;durP1;ratioP1;P1;durP2;ratioP2;P2;SDS_P1;SDS_P2;PMS_P1;PMS_P2;Temp;Humidity;BMP_temperature;BMP_pressure;BME280_temperature;BME280_humidity;BME280_pressure;Samples;Min_cycle;Max_cycle;Signal;HPM_P1;HPM_P2
2023/07/14 00:01:42;;;;;;;;;;;;;;;20.10;53.51;100734.22;4843700;29;6796;-72
2023/07/14 00:04:12;;;;;;;;;;;;;;;20.20;53.83;100737.81;4841672;29;6776;-72
2023/07/14 00:06:40;;;;;;;;;;;;;;;20.27;53.92;100738.75;4845931;29;7254;-72
2023/07/14 00:09:22;;;;;;;;;;;;;;;20.37;53.46;100740.63;4842731;29;6793;-72
2023/07/14 00:11:47;;;;;;;;;;;;;;;20.47;53.30;100738.13;4839870;29;6769;-72
2023/07/14 00:14:13;;;;;;;;;;;;;;;20.57;53.20;100736.53;4842696;29;6776;-72
2023/07/14 00:16:38;;;;;;;;;;;;;;;20.65;53.06;100735.75;4845355;29;7144;-72
2023/07/14 00:19:12;;;;;;;;;;;;;;;20.74;52.91;100734.13;4842094;29;6951;-72
2023/07/14 00:21:37;;;;;;;;;;;;;;;20.80;53.10;100729.00;4840537;29;6853;-72
2023/07/14 00:24:15;;;;;;;;;;;;;;;20.88;52.58;100732.59;4821905;29;6938;-72
2023/07/14 00:26:43;;;;;;;;;;;;;;;20.92;52.53;100723.94;4843719;29;6789;-72
2023/07/14 00:29:30;;;;;;;;;;;;;;;20.97;52.27;100733.53;4840662;29;6789;-72
2023/07/14 00:31:59;;;;;;;;;;;;;;;20.97;52.06;100731.78;4826729;29;6996;-72
2023/07/14 00:34:24;;;;;;;;;;;;;;;20.97;51.90;100726.59;4842502;29;7151;-72
2023/07/14 00:36:51;;;;;;;;;;;;;;;20.98;51.79;100732.69;4841818;29;7466;-73
2023/07/14 00:39:17;;;;;;;;;;;;;;;20.97;52.41;100730.94;4840090;29;6808;-72
2023/07/14 00:41:42;;;;;;;;;;;;;;;20.91;51.88;100735.22;4843369;29;6836;-72
2023/07/14 00:44:15;;;;;;;;;;;;;;;20.86;51.32;100736.03;4858869;29;6849;-72
2023/07/14 00:46:43;;;;;;;;;;;;;;;20.79;51.44;100733.31;4846025;29;6985;-72
2023/07/14 00:49:32;;;;;;;;;;;;;;;20.72;51.45;100731.50;4856497;29;6789;-72
2023/07/14 00:52:05;;;;;;;;;;;;;;;20.68;51.48;100734.91;4863808;29;6811;-72
2023/07/14 00:54:31;;;;;;;;;;;;;;;20.64;51.47;100731.41;4841240;29;7181;-72
2023/07/14 00:56:57;;;;;;;;;;;;;;;20.59;51.48;100737.41;4858005;29;6784;-72
2023/07/14 00:59:33;;;;;;;;;;;;;;;20.50;51.47;100741.66;4858862;29;6779;-72
2023/07/14 01:02:20;;;;;;;;;;;;;;;20.43;51.83;100738.97;4842096;29;6817;-72
2023/07/14 01:04:56;;;;;;;;;;;;;;;20.34;51.59;100732.78;4845380;29;6792;-72
2023/07/14 01:07:35;;;;;;;;;;;;;;;20.28;52.21;100730.13;4825431;29;6839;-72
2023/07/14 01:10:01;;;;;;;;;;;;;;;20.23;52.20;100731.78;4841637;29;6817;-72
2023/07/14 01:12:29;;;;;;;;;;;;;;;20.15;52.19;100725.59;4844016;29;6769;-72
2023/07/14 01:14:57;;;;;;;;;;;;;;;20.12;52.24;100729.00;4824543;29;8262;-72
2023/07/14 01:17:23;;;;;;;;;;;;;;;20.09;52.50;100732.47;4838883;29;6808;-72
2023/07/14 01:19:53;;;;;;;;;;;;;;;20.05;52.21;100729.81;4843047;29;6777;-72
2023/07/14 01:22:25;;;;;;;;;;;;;;;20.02;52.85;100725.41;4840619;29;7238;-72
2023/07/14 01:24:56;;;;;;;;;;;;;;;19.99;52.80;100725.38;4844824;29;6896;-72
2023/07/14 01:27:24;;;;;;;;;;;;;;;19.95;52.90;100718.38;4841924;29;7066;-72
2023/07/14 01:29:51;;;;;;;;;;;;;;;19.94;52.47;100719.22;4828041;29;6982;-73
2023/07/14 01:32:19;;;;;;;;;;;;;;;19.89;52.43;100715.63;4856192;29;6999;-72
2023/07/14 01:34:45;;;;;;;;;;;;;;;19.85;52.93;100714.75;4838877;29;6801;-72
2023/07/14 01:37:16;;;;;;;;;;;;;;;19.80;52.89;100719.88;4824448;29;6968;-72
2023/07/14 01:39:42;;;;;;;;;;;;;;;19.79;53.13;100719.84;4841638;29;6792;-72
2023/07/14 01:42:08;;;;;;;;;;;;;;;19.77;53.11;100716.34;4841074;29;7281;-72
2023/07/14 01:44:35;;;;;;;;;;;;;;;19.77;53.32;100716.34;4858756;29;6844;-72
2023/07/14 01:47:01;;;;;;;;;;;;;;;19.74;52.76;100722.38;4857612;29;6865;-72
2023/07/14 01:49:41;;;;;;;;;;;;;;;19.73;53.00;100718.03;4843321;29;6875;-72
2023/07/14 01:52:13;;;;;;;;;;;;;;;19.69;53.07;100713.63;4857684;29;7209;-72
2023/07/14 01:54:44;;;;;;;;;;;;;;;19.66;53.25;100716.19;4861031;29;6860;-72
2023/07/14 01:57:16;;;;;;;;;;;;;;;19.64;53.29;100710.09;4841242;29;7253;-72
2023/07/14 01:59:48;;;;;;;;;;;;;;;19.60;53.17;100709.16;4860894;29;7819;-72
2023/07/14 02:02:26;;;;;;;;;;;;;;;19.57;53.81;100716.94;4843057;29;7464;-72
2023/07/14 02:04:52;;;;;;;;;;;;;;;19.53;54.06;100712.50;4850837;29;7927;-72
2023/07/14 02:07:18;;;;;;;;;;;;;;;19.51;53.78;100707.31;4844917;29;6937;-72
2023/07/14 02:09:45;;;;;;;;;;;;;;;19.46;53.89;100708.94;4857726;29;6796;-72
2023/07/14 02:12:27;;;;;;;;;;;;;;;19.43;53.99;100711.50;4843612;29;6820;-72
2023/07/14 02:15:06;;;;;;;;;;;;;;;19.40;54.20;100706.22;4846066;29;7078;-72
2023/07/14 02:17:35;;;;;;;;;;;;;;;19.37;54.52;100713.97;4865022;29;6785;-72
2023/07/14 02:20:06;;;;;;;;;;;;;;;19.35;53.96;100713.09;4866636;29;7076;-72
2023/07/14 02:22:37;;;;;;;;;;;;;;;19.29;54.58;100699.13;4857826;29;6987;-72
2023/07/14 02:25:04;;;;;;;;;;;;;;;19.26;54.22;100703.41;4843479;29;6812;-73
2023/07/14 02:27:29;;;;;;;;;;;;;;;19.21;54.54;100708.50;4866010;29;6872;-72
2023/07/14 02:30:00;;;;;;;;;;;;;;;19.17;54.39;100709.31;4845331;29;6840;-72
2023/07/14 02:32:34;;;;;;;;;;;;;;;19.11;54.31;100702.31;4842504;29;7124;-72
2023/07/14 02:35:05;;;;;;;;;;;;;;;19.08;54.28;100698.78;4847753;29;7023;-72
2023/07/14 02:38:00;;;;;;;;;;;;;;;19.04;55.02;100697.84;4865313;29;6797;-71
2023/07/14 02:40:28;;;;;;;;;;;;;;;18.97;55.00;100699.41;4840088;29;6817;-71
2023/07/14 02:42:54;;;;;;;;;;;;;;;18.94;55.17;100693.28;4864101;29;6825;-72
2023/07/14 02:45:21;;;;;;;;;;;;;;;18.88;54.95;100688.88;4845572;29;6785;-70
2023/07/14 02:47:50;;;;;;;;;;;;;;;18.82;54.79;100688.75;4866291;29;6804;-72
2023/07/14 02:50:15;;;;;;;;;;;;;;;18.76;54.97;100691.25;4844345;29;8698;-72
2023/07/14 02:52:41;;;;;;;;;;;;;;;18.70;55.47;100698.06;4860149;29;7398;-72
2023/07/14 02:55:07;;;;;;;;;;;;;;;18.64;55.29;100697.97;4847566;29;7219;-72
2023/07/14 02:57:34;;;;;;;;;;;;;;;18.59;55.26;100699.56;4828864;29;6932;-72
2023/07/14 02:59:59;;;;;;;;;;;;;;;18.54;55.37;100702.06;4864942;29;6801;-73
2023/07/14 03:02:25;;;;;;;;;;;;;;;18.50;55.41;100699.38;4844064;29;6789;-73
2023/07/14 03:04:51;;;;;;;;;;;;;;;18.46;55.83;100694.16;4857780;29;7280;-73
2023/07/14 03:07:16;;;;;;;;;;;;;;;18.44;55.47;100689.75;4841947;29;8321;-73
2023/07/14 03:09:42;;;;;;;;;;;;;;;18.41;55.61;100689.72;4838279;29;6917;-73
2023/07/14 03:12:08;;;;;;;;;;;;;;;18.38;55.54;100687.91;4846304;29;6780;-73
2023/07/14 03:14:34;;;;;;;;;;;;;;;18.36;55.60;100697.41;4845766;29;6787;-73
2023/07/14 03:17:00;;;;;;;;;;;;;;;18.34;55.93;100693.88;4827020;29;7050;-73
2023/07/14 03:19:25;;;;;;;;;;;;;;;18.30;55.94;100687.78;4847891;29;6951;-73
2023/07/14 03:21:51;;;;;;;;;;;;;;;18.29;56.04;100690.31;4847294;29;6808;-73
2023/07/14 03:24:17;;;;;;;;;;;;;;;18.26;56.00;100683.34;4842997;29;6904;-73
2023/07/14 03:26:42;;;;;;;;;;;;;;;18.24;56.31;100685.03;4843365;29;6764;-73
2023/07/14 03:29:08;;;;;;;;;;;;;;;18.22;56.40;100683.25;4846368;29;6777;-73
2023/07/14 03:31:33;;;;;;;;;;;;;;;18.18;56.52;100683.19;4861015;29;7322;-73
2023/07/14 03:33:59;;;;;;;;;;;;;;;18.18;56.52;100690.09;4840129;29;7344;-73
2023/07/14 03:36:25;;;;;;;;;;;;;;;18.16;55.98;100677.09;4843940;29;7200;-73
2023/07/14 03:39:25;;;;;;;;;;;;;;;18.14;56.43;100670.97;4857874;29;7134;-72
2023/07/14 03:41:55;;;;;;;;;;;;;;;18.10;55.93;100674.38;4829785;29;7199;-73
2023/07/14 03:44:21;;;;;;;;;;;;;;;18.08;56.03;100675.16;4836979;29;7324;-73
2023/07/14 03:46:47;;;;;;;;;;;;;;;18.03;56.54;100673.38;4844837;29;6993;-72
2023/07/14 03:49:13;;;;;;;;;;;;;;;18.02;56.95;100674.19;4867718;29;6880;-72
2023/07/14 03:51:40;;;;;;;;;;;;;;;18.01;56.68;100668.94;4842689;29;7119;-72
2023/07/14 03:54:06;;;;;;;;;;;;;;;18.04;56.69;100669.03;4859145;29;7234;-73
2023/07/14 03:56:31;;;;;;;;;;;;;;;18.05;57.13;100668.19;4844568;29;6864;-73
2023/07/14 03:58:57;;;;;;;;;;;;;;;18.07;57.02;100663.03;4840722;29;7680;-72
2023/07/14 04:01:23;;;;;;;;;;;;;;;18.10;56.75;100666.59;4846799;29;7244;-73
2023/07/14 04:03:48;;;;;;;;;;;;;;;18.12;56.81;100670.09;4845304;29;6777;-72
2023/07/14 04:06:14;;;;;;;;;;;;;;;18.12;56.89;100669.22;4845358;29;6756;-72
2023/07/14 04:08:42;;;;;;;;;;;;;;;18.13;57.22;100677.00;4855643;29;7904;-72
2023/07/14 04:11:08;;;;;;;;;;;;;;;18.13;57.06;100676.16;4826198;29;7001;-73
2023/07/14 04:13:34;;;;;;;;;;;;;;;18.14;57.02;100673.56;4844210;29;7209;-73
2023/07/14 04:15:59;;;;;;;;;;;;;;;18.17;57.38;100675.38;4843439;29;7112;-73
2023/07/14 04:18:25;;;;;;;;;;;;;;;18.20;57.28;100672.81;4843551;29;7946;-72
2023/07/14 04:20:50;;;;;;;;;;;;;;;18.24;56.86;100671.19;4864577;29;7404;-73
2023/07/14 04:23:17;;;;;;;;;;;;;;;18.26;56.95;100669.50;4845404;29;6916;-73
2023/07/14 04:25:46;;;;;;;;;;;;;;;18.29;56.83;100672.16;4858361;29;6937;-73
2023/07/14 04:28:12;;;;;;;;;;;;;;;18.32;57.20;100673.09;4826380;29;7050;-73
2023/07/14 04:30:38;;;;;;;;;;;;;;;18.40;57.53;100672.38;4841070;29;7310;-72
2023/07/14 04:33:04;;;;;;;;;;;;;;;18.55;58.39;100667.47;4843599;29;6768;-72
2023/07/14 04:35:29;;;;;;;;;;;;;;;18.80;58.31;100670.56;4847110;29;6773;-73
2023/07/14 04:37:55;;;;;;;;;;;;;;;19.12;58.65;100669.38;4845522;29;6801;-73
2023/07/14 04:40:20;;;;;;;;;;;;;;;19.47;57.86;100665.66;4861891;29;6764;-73
2023/07/14 04:42:47;;;;;;;;;;;;;;;19.82;57.98;100663.56;4828904;29;6935;-73
2023/07/14 04:45:12;;;;;;;;;;;;;;;20.17;57.97;100666.63;4860473;29;6785;-72
2023/07/14 04:47:38;;;;;;;;;;;;;;;20.49;56.79;100661.81;4833904;29;6820;-73
2023/07/14 04:50:04;;;;;;;;;;;;;;;20.83;56.63;100665.69;4855870;29;7327;-72
2023/07/14 04:52:29;;;;;;;;;;;;;;;21.15;55.96;100658.16;4844200;29;7131;-72
2023/07/14 04:54:55;;;;;;;;;;;;;;;21.43;55.41;100655.72;4845691;29;6924;-72
2023/07/14 04:57:20;;;;;;;;;;;;;;;21.72;54.97;100652.47;4842703;29;6764;-72
2023/07/14 04:59:46;;;;;;;;;;;;;;;22.00;54.77;100655.22;4829344;29;7325;-72
2023/07/14 05:02:11;;;;;;;;;;;;;;;22.26;54.27;100654.47;4861828;29;7263;-72
2023/07/14 05:04:40;;;;;;;;;;;;;;;22.49;53.38;100645.88;4846192;29;6835;-72
2023/07/14 05:07:07;;;;;;;;;;;;;;;22.68;52.77;100648.53;4838249;29;6983;-72
2023/07/14 05:09:34;;;;;;;;;;;;;;;22.86;52.44;100640.72;4827646;29;7276;-73
2023/07/14 05:12:00;;;;;;;;;;;;;;;23.05;52.48;100639.88;4829179;29;7248;-73
2023/07/14 05:14:27;;;;;;;;;;;;;;;23.26;52.11;100644.19;4843436;29;6853;-72
2023/07/14 05:16:53;;;;;;;;;;;;;;;23.44;51.39;100635.50;4847687;29;6872;-72
2023/07/14 05:19:19;;;;;;;;;;;;;;;23.63;51.00;100635.47;4843786;29;8053;-72
2023/07/14 05:21:44;;;;;;;;;;;;;;;23.81;50.72;100638.03;4843281;29;7438;-72
2023/07/14 05:24:10;;;;;;;;;;;;;;;24.03;50.75;100629.22;4845915;29;7371;-73
2023/07/14 05:26:35;;;;;;;;;;;;;;;24.28;50.35;100624.75;4840838;29;7306;-72
2023/07/14 05:29:02;;;;;;;;;;;;;;;24.50;49.82;100628.13;4847045;29;6801;-73
2023/07/14 05:31:28;;;;;;;;;;;;;;;24.72;49.39;100624.50;4842354;29;6838;-73
2023/07/14 05:33:53;;;;;;;;;;;;;;;24.94;48.78;100620.00;4844252;29;7334;-72
2023/07/14 05:36:19;;;;;;;;;;;;;;;25.16;48.93;100622.44;4834654;29;6776;-72
2023/07/14 05:38:45;;;;;;;;;;;;;;;25.35;48.34;100624.00;4863324;29;11169;-72
2023/07/14 05:41:10;;;;;;;;;;;;;;;25.55;47.46;100624.72;4863239;29;6835;-72
2023/07/14 05:43:36;;;;;;;;;;;;;;;25.71;46.92;100623.66;4827541;29;7272;-72
2023/07/14 05:46:01;;;;;;;;;;;;;;;25.85;46.23;100625.25;4857045;29;7030;-73
2023/07/14 05:48:27;;;;;;;;;;;;;;;25.97;45.64;100625.09;4860130;29;6781;-72
2023/07/14 05:50:52;;;;;;;;;;;;;;;26.07;44.82;100625.84;4863367;29;6848;-72
2023/07/14 05:53:18;;;;;;;;;;;;;;;26.16;44.62;100622.25;4855797;29;6777;-73
2023/07/14 05:55:44;;;;;;;;;;;;;;;26.23;44.53;100620.41;4860383;29;6947;-73
2023/07/14 05:58:10;;;;;;;;;;;;;;;26.21;43.76;100620.44;4863022;29;6840;-72
2023/07/14 06:00:38;;;;;;;;;;;;;;;26.12;43.51;100618.78;4844918;29;7953;-73
2023/07/14 06:03:12;;;;;;;;;;;;;;;26.04;42.85;100618.88;4860217;29;7204;-73
2023/07/14 06:05:37;;;;;;;;;;;;;;;25.99;42.97;100611.97;4844009;29;6793;-72
2023/07/14 06:08:03;;;;;;;;;;;;;;;25.92;42.79;100614.66;4840812;29;6836;-72
2023/07/14 06:10:28;;;;;;;;;;;;;;;25.87;42.80;100621.69;4859786;29;7198;-72
2023/07/14 06:12:54;;;;;;;;;;;;;;;25.79;42.82;100613.94;4839778;29;7114;-72
2023/07/14 06:15:20;;;;;;;;;;;;;;;25.71;42.46;100614.91;4847348;29;6953;-72
2023/07/14 06:17:46;;;;;;;;;;;;;;;25.60;42.12;100610.66;4846941;29;6915;-72
2023/07/14 06:20:12;;;;;;;;;;;;;;;25.49;42.54;100604.59;4844513;29;6795;-72
2023/07/14 06:22:38;;;;;;;;;;;;;;;25.38;42.16;100602.13;4858411;29;6777;-72
2023/07/14 06:25:04;;;;;;;;;;;;;;;25.30;42.28;100596.06;4844139;29;6805;-74
2023/07/14 06:27:33;;;;;;;;;;;;;;;25.22;43.06;100596.16;4841941;29;7015;-72
2023/07/14 06:29:59;;;;;;;;;;;;;;;25.19;42.69;100601.41;4844862;29;6804;-71
2023/07/14 06:32:25;;;;;;;;;;;;;;;25.11;42.62;100591.00;4845313;29;6777;-72
2023/07/14 06:34:50;;;;;;;;;;;;;;;25.05;42.72;100599.81;4825997;29;6943;-72
2023/07/14 06:37:16;;;;;;;;;;;;;;;24.99;42.38;100592.00;4843413;29;7566;-72
2023/07/14 06:39:42;;;;;;;;;;;;;;;24.97;42.21;100588.50;4860462;29;7142;-72
2023/07/14 06:42:09;;;;;;;;;;;;;;;24.93;43.15;100592.06;4844554;29;6837;-74
2023/07/14 06:44:35;;;;;;;;;;;;;;;24.93;42.25;100581.56;4849176;29;6805;-72
2023/07/14 06:47:00;;;;;;;;;;;;;;;24.94;42.33;100581.53;4844928;29;6913;-72
2023/07/14 06:49:26;;;;;;;;;;;;;;;24.99;42.73;100584.13;4859319;29;7127;-74
2023/07/14 06:51:52;;;;;;;;;;;;;;;25.02;42.73;100591.97;4841756;29;7212;-72
2023/07/14 06:54:17;;;;;;;;;;;;;;;25.05;43.28;100585.81;4846911;29;6773;-73
2023/07/14 06:56:43;;;;;;;;;;;;;;;25.08;43.26;100586.66;4839314;29;7145;-72
2023/07/14 06:59:08;;;;;;;;;;;;;;;25.14;43.59;100588.34;4844633;29;7299;-73
2023/07/14 07:01:34;;;;;;;;;;;;;;;25.21;43.71;100590.03;4844734;29;6820;-72
2023/07/14 07:03:59;;;;;;;;;;;;;;;25.34;43.59;100588.16;4858453;29;7399;-72
2023/07/14 07:06:25;;;;;;;;;;;;;;;25.50;42.96;100586.28;4860373;29;6772;-73
2023/07/14 07:08:50;;;;;;;;;;;;;;;25.69;43.55;100579.94;4859116;29;8102;-72
2023/07/14 07:11:16;;;;;;;;;;;;;;;25.92;43.03;100579.66;4840840;29;7254;-72
2023/07/14 07:13:41;;;;;;;;;;;;;;;26.19;42.93;100588.03;4862252;29;6776;-73
2023/07/14 07:16:07;;;;;;;;;;;;;;;26.47;43.17;100593.81;4850195;29;7164;-72
2023/07/14 07:18:33;;;;;;;;;;;;;;;26.82;42.80;100578.38;4860771;29;7169;-73
2023/07/14 07:20:59;;;;;;;;;;;;;;;27.20;42.02;100575.97;4856871;29;6821;-72
2023/07/14 07:23:25;;;;;;;;;;;;;;;27.56;41.23;100573.56;4855883;29;6952;-73
2023/07/14 07:25:53;;;;;;;;;;;;;;;27.97;41.01;100557.78;4841752;29;8139;-72
2023/07/14 07:28:19;;;;;;;;;;;;;;;28.37;39.87;100556.03;4844645;29;6852;-72
2023/07/14 07:30:46;;;;;;;;;;;;;;;28.66;40.21;100559.72;4859644;29;6938;-72
2023/07/14 07:33:12;;;;;;;;;;;;;;;28.87;39.89;100557.47;4857588;29;8249;-72
2023/07/14 07:35:39;;;;;;;;;;;;;;;29.01;39.06;100550.97;4844222;29;7247;-72
2023/07/14 07:38:05;;;;;;;;;;;;;;;29.10;39.25;100550.72;4828041;29;6953;-74
2023/07/14 07:40:31;;;;;;;;;;;;;;;29.25;38.81;100550.28;4861976;29;6988;-72
2023/07/14 07:42:57;;;;;;;;;;;;;;;29.37;37.91;100550.88;4832985;29;6980;-72
2023/07/14 07:45:22;;;;;;;;;;;;;;;29.47;37.15;100546.22;4859118;29;6781;-71
2023/07/14 07:47:49;;;;;;;;;;;;;;;29.61;37.48;100540.53;4863008;29;7033;-71
2023/07/14 07:50:15;;;;;;;;;;;;;;;29.74;37.12;100536.59;4861345;29;7527;-72
2023/07/14 07:52:41;;;;;;;;;;;;;;;29.84;36.12;100536.31;4848238;29;6768;-72
2023/07/14 07:55:06;;;;;;;;;;;;;;;29.93;36.01;100533.41;4864814;29;7222;-72
2023/07/14 07:57:32;;;;;;;;;;;;;;;30.03;36.65;100529.56;4845819;29;6967;-72
2023/07/14 07:59:57;;;;;;;;;;;;;;;30.13;36.38;100530.19;4862740;29;6961;-72
2023/07/14 08:02:23;;;;;;;;;;;;;;;30.19;36.62;100519.44;4829072;29;7060;-72
2023/07/14 08:04:49;;;;;;;;;;;;;;;30.27;35.78;100526.22;4831211;29;6769;-72
2023/07/14 08:07:16;;;;;;;;;;;;;;;30.36;36.09;100512.69;4812492;29;7175;-72
2023/07/14 08:09:41;;;;;;;;;;;;;;;30.53;34.98;100516.56;4830668;29;6966;-71
2023/07/14 08:12:08;;;;;;;;;;;;;;;30.69;35.09;100515.16;4829334;29;6987;-71
2023/07/14 08:14:49;;;;;;;;;;;;;;;30.90;34.57;100516.22;4830833;29;6848;-74
2023/07/14 08:17:15;;;;;;;;;;;;;;;31.01;34.34;100518.44;4852363;29;9187;-74
2023/07/14 08:19:40;;;;;;;;;;;;;;;30.98;33.83;100507.13;4815747;29;7025;-74
2023/07/14 08:22:06;;;;;;;;;;;;;;;30.92;34.14;100507.34;4831422;29;6812;-74
2023/07/14 08:24:32;;;;;;;;;;;;;;;30.94;33.97;100514.28;4852808;29;6863;-71
2023/07/14 08:26:57;;;;;;;;;;;;;;;31.07;33.65;100504.13;4827252;29;6836;-71
2023/07/14 08:29:23;;;;;;;;;;;;;;;31.29;33.63;100506.00;4831062;29;7218;-72
2023/07/14 08:31:49;;;;;;;;;;;;;;;31.53;33.42;100512.19;4843680;29;7031;-71
2023/07/14 08:34:14;;;;;;;;;;;;;;;31.82;32.73;100504.06;4851240;29;8675;-72
2023/07/14 08:36:40;;;;;;;;;;;;;;;32.06;31.96;100496.91;4831770;29;6924;-72
2023/07/14 08:39:06;;;;;;;;;;;;;;;32.20;31.87;100483.09;4829453;29;7153;-72
2023/07/14 08:41:36;;;;;;;;;;;;;;;32.16;31.52;100489.47;4844747;29;6800;-72
2023/07/14 08:44:20;;;;;;;;;;;;;;;32.09;30.98;100495.94;4848324;29;7221;-72
2023/07/14 08:47:13;;;;;;;;;;;;;;;32.31;30.92;100490.59;4849537;29;6891;-72
2023/07/14 08:49:58;;;;;;;;;;;;;;;32.61;30.20;100484.06;4847370;29;6789;-72
2023/07/14 08:52:28;;;;;;;;;;;;;;;32.86;29.74;100483.00;4846482;29;7247;-72
2023/07/14 08:55:03;;;;;;;;;;;;;;;33.08;29.00;100481.13;4852961;29;6967;-72
2023/07/14 08:57:33;;;;;;;;;;;;;;;33.25;29.30;100476.84;4847121;29;6801;-72
2023/07/14 09:00:03;;;;;;;;;;;;;;;33.60;28.88;100476.16;4845222;29;7170;-72
2023/07/14 09:02:29;;;;;;;;;;;;;;;34.03;28.73;100478.56;4845454;29;6812;-72
2023/07/14 09:05:02;;;;;;;;;;;;;;;34.41;28.44;100473.09;4848024;29;6793;-72
2023/07/14 09:07:28;;;;;;;;;;;;;;;34.69;28.03;100470.84;4852963;29;6878;-72
2023/07/14 09:09:54;;;;;;;;;;;;;;;34.90;26.84;100471.50;4849192;29;6789;-72
2023/07/14 09:12:36;;;;;;;;;;;;;;;35.06;26.68;100468.91;4844974;29;6962;-72
2023/07/14 09:15:20;;;;;;;;;;;;;;;34.96;26.48;100462.31;4847023;29;6804;-72
2023/07/14 09:18:22;;;;;;;;;;;;;;;34.68;26.59;100464.66;4844404;29;7000;-72
2023/07/14 09:21:21;;;;;;;;;;;;;;;34.58;26.33;100460.78;4840508;29;6792;-72
2023/07/14 09:24:01;;;;;;;;;;;;;;;34.68;26.09;100456.69;4844751;29;6797;-71
2023/07/14 09:26:27;;;;;;;;;;;;;;;34.83;26.32;100454.13;4843732;29;6968;-70
2023/07/14 09:28:52;;;;;;;;;;;;;;;35.08;26.43;100444.88;4842624;29;7201;-71
2023/07/14 09:31:55;;;;;;;;;;;;;;;35.48;25.91;100442.63;4827034;29;6966;-71
2023/07/14 09:34:23;;;;;;;;;;;;;;;35.97;25.59;100444.31;4843568;29;6992;-71
2023/07/14 09:36:49;;;;;;;;;;;;;;;36.24;24.74;100432.97;4837880;29;7178;-71
2023/07/14 09:39:32;;;;;;;;;;;;;;;36.42;25.35;100425.69;4846236;29;6947;-71
2023/07/14 09:42:01;;;;;;;;;;;;;;;36.80;25.33;100431.47;4843244;29;7198;-71
2023/07/14 09:44:27;;;;;;;;;;;;;;;37.16;24.18;100430.09;4859718;29;7246;-71
2023/07/14 09:46:53;;;;;;;;;;;;;;;37.08;23.79;100435.06;4845789;29;7175;-71
2023/07/14 09:49:34;;;;;;;;;;;;;;;36.97;24.07;100433.06;4841819;29;6804;-71
2023/07/14 09:52:01;;;;;;;;;;;;;;;37.01;24.35;100418.56;4841588;29;7084;-71
2023/07/14 09:54:27;;;;;;;;;;;;;;;36.83;23.96;100420.59;4842704;29;6886;-71
2023/07/14 09:57:02;;;;;;;;;;;;;;;36.86;24.00;100420.38;4843699;29;6788;-71
2023/07/14 09:59:28;;;;;;;;;;;;;;;36.92;23.98;100419.13;4841304;29;6975;-71
2023/07/14 10:01:58;;;;;;;;;;;;;;;36.73;24.02;100420.28;4839794;29;8443;-71
2023/07/14 10:04:32;;;;;;;;;;;;;;;36.36;24.05;100418.06;4844158;29;6809;-71
2023/07/14 10:07:27;;;;;;;;;;;;;;;36.14;24.64;100419.34;4858855;29;6789;-71
2023/07/14 10:10:24;;;;;;;;;;;;;;;36.01;24.41;100412.97;4841682;29;6975;-71
2023/07/14 10:12:50;;;;;;;;;;;;;;;35.75;24.76;100407.41;4829404;29;7018;-71
2023/07/14 10:15:34;;;;;;;;;;;;;;;35.56;25.50;100411.13;4841466;29;6831;-71
2023/07/14 10:18:04;;;;;;;;;;;;;;;35.52;25.66;100401.53;4848352;29;6789;-70
2023/07/14 10:20:31;;;;;;;;;;;;;;;35.62;24.99;100391.25;4844060;29;7252;-70
2023/07/14 10:22:58;;;;;;;;;;;;;;;35.70;24.16;100385.47;4845357;29;6800;-71
2023/07/14 10:25:26;;;;;;;;;;;;;;;35.85;25.85;100381.91;4844729;29;7189;-71
2023/07/14 10:27:57;;;;;;;;;;;;;;;36.37;25.17;100371.75;4842719;29;6975;-71
2023/07/14 10:30:38;;;;;;;;;;;;;;;37.12;24.68;100375.19;4866297;29;7131;-71
2023/07/14 10:33:15;;;;;;;;;;;;;;;37.94;24.60;100363.56;4867413;29;6793;-71
2023/07/14 10:35:42;;;;;;;;;;;;;;;38.27;23.27;100358.69;4845921;29;7135;-71
2023/07/14 10:38:28;;;;;;;;;;;;;;;38.14;23.15;100356.03;4827346;29;8901;-71
2023/07/14 10:41:00;;;;;;;;;;;;;;;38.41;23.27;100355.06;4859933;29;7219;-71
2023/07/14 10:43:33;;;;;;;;;;;;;;;38.36;22.38;100354.53;4846582;29;6797;-71
2023/07/14 10:46:06;;;;;;;;;;;;;;;37.91;22.94;100342.41;4860888;29;7222;-71
2023/07/14 10:48:43;;;;;;;;;;;;;;;37.63;23.24;100337.13;4857368;29;6817;-71
2023/07/14 10:51:30;;;;;;;;;;;;;;;37.83;22.78;100329.56;4829958;29;6984;-71
2023/07/14 10:54:12;;;;;;;;;;;;;;;37.69;22.53;100327.84;4844654;29;7262;-71
2023/07/14 10:56:47;;;;;;;;;;;;;;;37.51;22.28;100317.41;4826185;29;7242;-70
2023/07/14 10:59:26;;;;;;;;;;;;;;;37.48;21.51;100314.94;4827799;29;6869;-71
2023/07/14 11:02:11;;;;;;;;;;;;;;;37.06;21.60;100322.16;4844510;29;6938;-71
2023/07/14 11:04:42;;;;;;;;;;;;;;;36.98;22.10;100317.28;4865168;29;6868;-71
2023/07/14 11:07:16;;;;;;;;;;;;;;;36.83;22.38;100313.81;4858754;29;7220;-71
2023/07/14 11:09:41;;;;;;;;;;;;;;;36.54;22.72;100313.81;4861982;29;6793;-71
2023/07/14 11:12:15;;;;;;;;;;;;;;;36.59;21.95;100308.22;4841542;29;6757;-70
2023/07/14 11:14:48;;;;;;;;;;;;;;;36.92;22.22;100298.97;4843090;29;6797;-71
2023/07/14 11:18:09;;;;;;;;;;;;;;;37.58;21.40;100298.31;4847439;29;6929;-71
2023/07/14 11:20:58;;;;;;;;;;;;;;;37.61;20.58;100301.59;4831596;29;7239;-71
2023/07/14 11:23:27;;;;;;;;;;;;;;;37.10;20.51;100295.13;4842740;29;6865;-71
2023/07/14 11:25:55;;;;;;;;;;;;;;;37.00;21.68;100298.50;4858864;29;6820;-70
2023/07/14 11:28:32;;;;;;;;;;;;;;;37.29;21.64;100287.75;4845370;29;6800;-71
2023/07/14 11:31:01;;;;;;;;;;;;;;;37.16;20.48;100288.53;4865406;29;6963;-70
2023/07/14 11:33:39;;;;;;;;;;;;;;;36.71;20.86;100288.75;4828680;29;6861;-71
2023/07/14 11:36:17;;;;;;;;;;;;;;;36.37;20.90;100283.72;4843164;29;6964;-71
2023/07/14 11:38:58;;;;;;;;;;;;;;;36.18;20.88;100285.81;4843681;29;6805;-71
2023/07/14 11:41:25;;;;;;;;;;;;;;;36.05;21.38;100285.69;4844663;29;7217;-72
2023/07/14 11:43:52;;;;;;;;;;;;;;;35.91;21.16;100289.19;4838233;29;7225;-71
2023/07/14 11:46:20;;;;;;;;;;;;;;;35.70;21.95;100276.19;4828388;29;6939;-73
2023/07/14 11:48:48;;;;;;;;;;;;;;;35.81;22.12;100270.25;4846861;29;7199;-72
2023/07/14 11:51:16;;;;;;;;;;;;;;;36.19;22.17;100260.84;4847586;29;6781;-74
2023/07/14 11:54:05;;;;;;;;;;;;;;;36.48;21.30;100260.81;4846069;29;6796;-74
2023/07/14 11:56:42;;;;;;;;;;;;;;;36.32;21.44;100261.81;4834959;29;7020;-73
2023/07/14 11:59:22;;;;;;;;;;;;;;;36.04;21.63;100263.50;4838908;29;8734;-72
2023/07/14 12:01:50;;;;;;;;;;;;;;;35.96;22.47;100252.44;4865495;29;7370;-72
2023/07/14 12:04:24;;;;;;;;;;;;;;;36.26;21.67;100246.19;4858882;29;6789;-72
2023/07/14 12:07:14;;;;;;;;;;;;;;;37.08;21.74;100234.78;4850240;29;7037;-73
2023/07/14 12:10:13;;;;;;;;;;;;;;;38.16;21.33;100234.59;4862625;29;6797;-73
2023/07/14 12:12:40;;;;;;;;;;;;;;;38.70;20.93;100232.53;4850299;29;7460;-74
2023/07/14 12:15:43;;;;;;;;;;;;;;;39.30;20.20;100229.03;4846163;29;7916;-75
2023/07/14 12:18:35;;;;;;;;;;;;;;;40.17;20.42;100206.22;4856197;29;7138;-74
2023/07/14 12:21:18;;;;;;;;;;;;;;;40.92;19.27;100206.47;4834993;29;6942;-75
2023/07/14 12:23:48;;;;;;;;;;;;;;;41.35;18.21;100206.50;4843332;29;6996;-71
2023/07/14 12:26:20;;;;;;;;;;;;;;;41.64;18.59;100206.69;4858452;29;6773;-71
2023/07/14 12:28:47;;;;;;;;;;;;;;;42.03;17.45;100199.78;4843089;29;6841;-73
2023/07/14 12:31:18;;;;;;;;;;;;;;;42.24;17.72;100194.31;4843622;29;6845;-73
2023/07/14 12:33:45;;;;;;;;;;;;;;;41.98;17.69;100192.09;4864824;29;7088;-71
2023/07/14 12:36:18;;;;;;;;;;;;;;;41.29;17.81;100190.88;4861797;29;6930;-71
2023/07/14 12:38:51;;;;;;;;;;;;;;;40.54;18.39;100186.31;4875994;29;6852;-70
2023/07/14 12:41:18;;;;;;;;;;;;;;;40.10;18.72;100181.72;4827552;29;7223;-73
2023/07/14 12:43:51;;;;;;;;;;;;;;;40.23;18.95;100168.19;4840975;29;6880;-73
2023/07/14 12:46:23;;;;;;;;;;;;;;;40.62;18.60;100158.81;4854508;29;7826;-73
2023/07/14 12:48:50;;;;;;;;;;;;;;;40.89;18.27;100152.13;4842111;29;7004;-71
2023/07/14 12:51:20;;;;;;;;;;;;;;;40.94;18.12;100149.91;4842934;29;7208;-72
2023/07/14 12:53:58;;;;;;;;;;;;;;;40.55;17.93;100148.56;4862630;29;6777;-74
2023/07/14 12:56:23;;;;;;;;;;;;;;;40.15;18.40;100149.16;4841051;29;7005;-73
2023/07/14 12:58:55;;;;;;;;;;;;;;;39.64;18.92;100151.38;4847779;29;6929;-74
2023/07/14 13:01:20;;;;;;;;;;;;;;;39.09;19.26;100145.81;4820705;29;7181;-72
2023/07/14 13:03:46;;;;;;;;;;;;;;;38.95;20.41;100144.16;4836504;29;6765;-72